createdAt,value
2019-04-21T00:00:25.997Z,6.58
2019-04-21T00:02:58.896Z,6.55
2019-04-21T00:05:49.924Z,6.61
2019-04-21T00:08:27.258Z,6.58
2019-04-21T00:10:47.971Z,6.59
2019-04-21T00:13:12.354Z,6.60
2019-04-21T00:15:38.690Z,6.58
2019-04-21T00:18:21.202Z,6.54
2019-04-21T00:20:56.207Z,6.54
2019-04-21T00:23:42.102Z,6.52
2019-04-21T00:26:03.035Z,6.54
2019-04-21T00:28:52.813Z,6.53
2019-04-21T00:31:12.605Z,6.49
2019-04-21T00:33:32.451Z,6.46
2019-04-21T00:36:05.612Z,6.45
2019-04-21T00:39:03.128Z,6.46
2019-04-21T00:41:25.104Z,6.48
2019-04-21T00:43:44.779Z,6.53
2019-04-21T00:46:11.972Z,6.48
2019-04-21T00:48:54.030Z,6.45
2019-04-21T00:51:41.998Z,6.41
2019-04-21T00:54:05.759Z,6.40
2019-04-21T00:56:34.359Z,6.33
2019-04-21T00:59:05.725Z,6.20
2019-04-21T01:01:31.235Z,6.04
2019-04-21T01:04:04.433Z,5.94
2019-04-21T01:06:42.127Z,5.87
2019-04-21T01:09:09.337Z,5.91
2019-04-21T01:11:47.355Z,5.97
2019-04-21T01:14:12.054Z,5.94
2019-04-21T01:16:45.892Z,5.92
2019-04-21T01:19:13.945Z,5.94
2019-04-21T01:21:24.764Z,5.98
2019-04-21T01:23:55.739Z,5.89
2019-04-21T01:26:40.828Z,5.85
2019-04-21T01:29:14.461Z,5.78
2019-04-21T01:31:48.493Z,5.79
2019-04-21T01:34:20.530Z,5.80
2019-04-21T01:36:51.442Z,5.84
2019-04-21T01:39:27.197Z,5.81
2019-04-21T01:41:57.595Z,5.78
2019-04-21T01:44:34.436Z,5.78
2019-04-21T01:46:56.372Z,5.77
2019-04-21T01:49:21.883Z,5.70
2019-04-21T01:52:10.818Z,5.69
2019-04-21T01:54:48.242Z,5.58
2019-04-21T01:57:22.915Z,5.58
2019-04-21T01:59:50.258Z,5.60
2019-04-21T02:02:32.544Z,5.57
2019-04-21T02:05:03.187Z,5.57
2019-04-21T02:07:34.521Z,5.55
2019-04-21T02:10:05.218Z,5.51
2019-04-21T02:12:33.394Z,5.45
2019-04-21T02:15:11.493Z,5.43
2019-04-21T02:17:35.710Z,5.36
2019-04-21T02:20:00.584Z,5.46
2019-04-21T02:22:57.693Z,5.37
2019-04-21T02:25:28.118Z,5.38
2019-04-21T02:27:43.767Z,5.34
2019-04-21T02:30:24.769Z,5.32
2019-04-21T02:35:33.399Z,5.29
2019-04-21T02:40:30.044Z,5.19
2019-04-21T02:45:29.767Z,5.18
2019-04-21T02:50:33.999Z,5.07
2019-04-21T02:53:05.509Z,5.08
2019-04-21T02:55:30.429Z,5.08
2019-04-21T02:58:06.205Z,5.05
2019-04-21T03:00:57.220Z,5.06
2019-04-21T03:06:16.808Z,5.06
2019-04-21T03:08:54.380Z,5.05
2019-04-21T03:11:11.941Z,5.01
2019-04-21T03:16:22.929Z,4.99
2019-04-21T03:18:57.150Z,4.96
2019-04-21T03:21:20.721Z,4.95
2019-04-21T03:23:54.910Z,4.91
2019-04-21T03:28:54.515Z,4.88
2019-04-21T03:37:00.599Z,4.87
2019-04-21T03:38:58.443Z,4.85
2019-04-21T03:46:47.967Z,4.89
2019-04-21T03:49:11.941Z,4.95
2019-04-21T03:59:03.820Z,5.22
2019-04-21T04:04:53.019Z,5.43
2019-04-21T04:07:44.036Z,5.62
2019-04-21T04:12:38.095Z,5.82
2019-04-21T04:15:24.398Z,5.94
2019-04-21T04:17:32.944Z,6.04
2019-04-21T04:20:16.398Z,6.15
2019-04-21T04:25:15.538Z,6.42
2019-04-21T04:30:31.299Z,6.66
2019-04-21T04:32:56.645Z,6.71
2019-04-21T04:38:08.624Z,6.95
2019-04-21T04:45:53.670Z,7.46
2019-04-21T04:48:20.212Z,7.62
2019-04-21T04:50:53.190Z,7.74
2019-04-21T04:53:31.008Z,7.82
2019-04-21T04:55:58.924Z,7.88
2019-04-21T04:58:29.761Z,8.08
2019-04-21T05:01:06.171Z,8.18
2019-04-21T05:03:44.520Z,8.37
2019-04-21T05:09:04.208Z,8.53
2019-04-21T05:14:02.886Z,8.98
2019-04-21T05:21:40.539Z,9.02
2019-04-21T05:23:52.519Z,9.21
2019-04-21T05:26:14.326Z,9.45
2019-04-21T05:28:49.778Z,9.66
2019-04-21T05:32:04.614Z,9.80
2019-04-21T05:34:31.921Z,9.92
2019-04-21T05:37:25.746Z,9.97
2019-04-21T05:40:03.122Z,10.04
2019-04-21T05:42:36.781Z,9.81
2019-04-21T05:45:19.551Z,9.68
2019-04-21T05:48:06.072Z,9.72
2019-04-21T05:50:26.507Z,9.76
2019-04-21T05:52:55.940Z,9.69
2019-04-21T05:55:40.604Z,9.53
2019-04-21T05:58:02.680Z,9.57
2019-04-21T06:03:17.615Z,9.67
2019-04-21T06:05:53.315Z,9.74
2019-04-21T06:08:13.240Z,9.75
2019-04-21T06:13:22.198Z,9.96
2019-04-21T06:15:50.292Z,9.94
2019-04-21T06:18:20.105Z,9.90
2019-04-21T06:20:48.773Z,9.89
2019-04-21T06:23:20.339Z,10.02
2019-04-21T06:26:18.023Z,10.06
2019-04-21T06:28:28.729Z,10.14
2019-04-21T06:31:05.472Z,10.13
2019-04-21T06:33:32.193Z,10.31
2019-04-21T06:39:01.945Z,10.48
2019-04-21T06:41:27.820Z,10.62
2019-04-21T06:46:33.433Z,10.75
2019-04-21T06:51:27.452Z,10.96
2019-04-21T06:56:36.332Z,11.15
2019-04-21T06:59:01.434Z,11.32
2019-04-21T07:01:36.363Z,11.45
2019-04-21T07:04:13.194Z,11.52
2019-04-21T07:06:35.594Z,11.69
2019-04-21T07:09:15.975Z,11.83
2019-04-21T07:11:36.812Z,11.95
2019-04-21T07:14:27.268Z,12.03
2019-04-21T07:16:48.067Z,12.14
2019-04-21T07:19:21.832Z,12.30
2019-04-21T07:21:49.315Z,12.47
2019-04-21T07:24:21.726Z,12.61
2019-04-21T07:26:51.575Z,12.73
2019-04-21T07:29:25.878Z,12.87
2019-04-21T07:34:32.235Z,13.25
2019-04-21T07:36:54.905Z,13.36
2019-04-21T07:39:16.846Z,13.57
2019-04-21T07:41:49.663Z,13.67
2019-04-21T07:44:24.361Z,13.75
2019-04-21T07:46:53.357Z,13.87
2019-04-21T07:49:46.615Z,14.13
2019-04-21T07:52:33.514Z,14.33
2019-04-21T07:55:06.242Z,14.51
2019-04-21T07:57:27.693Z,14.56
2019-04-21T08:02:29.377Z,14.62
2019-04-21T08:05:11.001Z,14.82
2019-04-21T08:07:41.759Z,14.91
2019-04-21T08:10:04.273Z,15.00
2019-04-21T08:12:30.502Z,15.09
2019-04-21T08:15:15.746Z,15.22
2019-04-21T08:17:36.623Z,15.34
2019-04-21T08:20:09.222Z,15.49
2019-04-21T08:22:46.850Z,15.63
2019-04-21T08:25:13.871Z,15.73
2019-04-21T08:27:47.757Z,15.87
2019-04-21T08:30:11.559Z,16.01
2019-04-21T08:32:51.531Z,16.10
2019-04-21T08:37:50.964Z,16.36
2019-04-21T08:40:28.246Z,16.52
2019-04-21T08:42:50.801Z,16.70
2019-04-21T08:47:52.555Z,16.92
2019-04-21T08:50:27.960Z,17.04
2019-04-21T08:55:54.292Z,17.39
2019-04-21T08:58:44.633Z,17.58
2019-04-21T09:01:24.197Z,17.46
2019-04-21T09:04:15.833Z,16.59
2019-04-21T09:06:59.178Z,16.97
2019-04-21T09:09:21.015Z,17.24
2019-04-21T09:11:49.875Z,17.26
2019-04-21T09:14:21.096Z,17.43
2019-04-21T09:16:47.505Z,17.50
2019-04-21T09:19:20.296Z,17.61
2019-04-21T09:21:50.498Z,17.66
2019-04-21T09:24:24.190Z,17.70
2019-04-21T09:26:55.667Z,17.74
2019-04-21T09:29:17.445Z,17.69
2019-04-21T09:31:41.301Z,17.95
2019-04-21T09:34:08.944Z,18.01
2019-04-21T09:36:45.952Z,18.19
2019-04-21T09:39:18.061Z,18.31
2019-04-21T09:41:44.938Z,18.72
2019-04-21T09:44:22.056Z,18.72
2019-04-21T09:46:50.582Z,18.43
2019-04-21T09:49:22.556Z,18.44
2019-04-21T09:51:48.417Z,18.58
2019-04-21T09:54:24.821Z,18.76
2019-04-21T09:56:55.999Z,19.00
2019-04-21T09:59:28.087Z,19.11
2019-04-21T10:02:00.238Z,19.01
2019-04-21T10:04:23.203Z,18.95
2019-04-21T10:06:52.684Z,19.15
2019-04-21T10:09:22.265Z,19.36
2019-04-21T10:11:52.715Z,19.47
2019-04-21T10:14:22.279Z,19.58
2019-04-21T10:17:00.329Z,19.50
2019-04-21T10:19:39.779Z,19.40
2019-04-21T10:22:10.582Z,19.60
2019-04-21T10:24:40.565Z,19.46
2019-04-21T10:27:12.739Z,19.38
2019-04-21T10:29:44.586Z,19.48
2019-04-21T10:32:13.409Z,19.64
2019-04-21T10:34:43.361Z,19.84
2019-04-21T10:37:13.354Z,19.93
2019-04-21T10:39:42.917Z,20.00
2019-04-21T10:42:13.187Z,19.82
2019-04-21T10:44:43.219Z,19.93
2019-04-21T10:47:14.363Z,19.58
2019-04-21T10:49:44.805Z,20.01
2019-04-21T10:52:22.884Z,19.51
2019-04-21T10:55:11.273Z,19.73
2019-04-21T10:57:26.600Z,19.54
2019-04-21T10:59:58.181Z,18.86
2019-04-21T11:02:36.866Z,19.07
2019-04-21T11:05:06.971Z,19.34
2019-04-21T11:08:02.484Z,19.90
2019-04-21T11:10:22.177Z,20.39
2019-04-21T11:12:52.651Z,20.76
2019-04-21T11:15:23.337Z,20.83
2019-04-21T11:17:54.503Z,20.85
2019-04-21T11:20:24.748Z,20.75
2019-04-21T11:22:55.517Z,20.84
2019-04-21T11:25:26.259Z,21.05
2019-04-21T11:27:56.151Z,21.30
2019-04-21T11:30:25.770Z,21.39
2019-04-21T11:32:55.367Z,21.64
2019-04-21T11:35:25.506Z,21.87
2019-04-21T11:38:06.183Z,22.08
2019-04-21T11:40:27.707Z,21.71
2019-04-21T11:42:57.708Z,21.65
2019-04-21T11:45:30.912Z,21.06
2019-04-21T11:48:06.499Z,21.09
2019-04-21T11:50:37.104Z,21.05
2019-04-21T11:53:07.081Z,21.60
2019-04-21T11:55:41.695Z,21.58
2019-04-21T11:58:09.957Z,20.02
2019-04-21T12:00:39.894Z,20.59
2019-04-21T12:03:12.023Z,20.57
2019-04-21T12:05:41.453Z,19.84
2019-04-21T12:08:23.134Z,20.52
2019-04-21T12:10:43.145Z,21.19
2019-04-21T12:13:14.067Z,21.29
2019-04-21T12:15:45.068Z,21.73
2019-04-21T12:18:15.544Z,22.06
2019-04-21T12:20:45.213Z,21.60
2019-04-21T12:23:14.650Z,21.11
2019-04-21T12:25:47.251Z,20.87
2019-04-21T12:28:17.405Z,20.69
2019-04-21T12:30:49.672Z,20.39
2019-04-21T12:33:29.867Z,20.73
2019-04-21T12:35:59.976Z,20.75
2019-04-21T12:38:38.762Z,21.01
2019-04-21T12:41:00.683Z,21.19
2019-04-21T12:43:30.681Z,21.38
2019-04-21T12:46:00.151Z,21.36
2019-04-21T12:48:29.846Z,21.19
2019-04-21T12:50:59.821Z,21.00
2019-04-21T12:53:29.798Z,21.02
2019-04-21T12:56:00.028Z,20.76
2019-04-21T12:58:31.040Z,20.88
2019-04-21T13:01:00.908Z,20.97
2019-04-21T13:03:32.052Z,20.95
2019-04-21T13:06:01.803Z,21.03
2019-04-21T13:08:43.599Z,20.80
2019-04-21T13:11:02.584Z,20.83
2019-04-21T13:13:32.227Z,19.90
2019-04-21T13:16:02.970Z,20.16
2019-04-21T13:18:33.237Z,19.48
2019-04-21T13:21:04.257Z,18.90
2019-04-21T13:23:34.899Z,19.34
2019-04-21T13:26:06.129Z,19.26
2019-04-21T13:28:35.915Z,19.15
2019-04-21T13:31:06.495Z,19.19
2019-04-21T13:33:36.133Z,19.43
2019-04-21T13:36:05.636Z,19.60
2019-04-21T13:38:42.667Z,19.60
2019-04-21T13:41:27.323Z,19.47
2019-04-21T13:43:43.296Z,19.40
2019-04-21T13:46:12.945Z,19.41
2019-04-21T13:48:42.633Z,19.14
2019-04-21T13:51:13.409Z,19.21
2019-04-21T13:53:43.901Z,19.34
2019-04-21T13:56:14.322Z,19.55
2019-04-21T13:58:44.301Z,19.67
2019-04-21T14:01:13.973Z,19.76
2019-04-21T14:03:44.074Z,19.54
2019-04-21T14:06:14.153Z,19.74
2019-04-21T14:08:46.629Z,19.71
2019-04-21T14:11:17.544Z,19.70
2019-04-21T14:13:48.261Z,19.70
2019-04-21T14:16:18.219Z,19.70
2019-04-21T14:18:47.880Z,19.67
2019-04-21T14:21:17.316Z,19.79
2019-04-21T14:23:49.296Z,19.78
2019-04-21T14:26:18.380Z,19.94
2019-04-21T14:28:49.177Z,20.01
2019-04-21T14:31:20.006Z,20.00
2019-04-21T14:33:50.022Z,19.96
2019-04-21T14:36:21.005Z,19.94
2019-04-21T14:38:52.338Z,19.89
2019-04-21T14:41:24.115Z,19.83
2019-04-21T14:43:55.049Z,19.82
2019-04-21T14:46:47.035Z,19.78
2019-04-21T14:49:21.653Z,19.76
2019-04-21T14:52:08.686Z,19.61
2019-04-21T14:54:58.658Z,19.48
2019-04-21T14:57:29.489Z,19.41
2019-04-21T15:00:00.605Z,19.15
2019-04-21T15:02:31.819Z,19.25
2019-04-21T15:05:02.198Z,19.02
2019-04-21T15:07:33.076Z,19.21
2019-04-21T15:10:11.547Z,19.21
2019-04-21T15:12:34.213Z,19.06
2019-04-21T15:15:03.616Z,19.19
2019-04-21T15:17:33.733Z,19.25
2019-04-21T15:20:17.641Z,19.38
2019-04-21T15:22:48.303Z,19.39
2019-04-21T15:25:18.365Z,19.22
2019-04-21T15:27:48.760Z,19.34
2019-04-21T15:30:18.729Z,19.34
2019-04-21T15:32:48.600Z,19.37
2019-04-21T15:35:19.535Z,19.31
2019-04-21T15:37:49.858Z,19.25
2019-04-21T15:40:31.677Z,19.18
2019-04-21T15:42:52.678Z,19.21
2019-04-21T15:45:22.418Z,19.00
2019-04-21T15:47:51.973Z,18.91
2019-04-21T15:50:23.144Z,18.76
2019-04-21T15:52:53.911Z,18.73
2019-04-21T15:55:41.346Z,18.89
2019-04-21T15:58:30.434Z,18.92
2019-04-21T16:01:10.310Z,18.86
2019-04-21T16:03:40.677Z,18.78
2019-04-21T16:06:11.616Z,18.78
2019-04-21T16:08:41.113Z,18.72
2019-04-21T16:11:11.369Z,18.74
2019-04-21T16:13:41.692Z,18.72
2019-04-21T16:16:12.600Z,18.70
2019-04-21T16:18:42.642Z,18.70
2019-04-21T16:21:13.717Z,18.60
2019-04-21T16:23:46.636Z,18.41
2019-04-21T16:26:17.038Z,18.41
2019-04-21T16:28:49.192Z,18.40
2019-04-21T16:31:20.314Z,18.38
2019-04-21T16:33:52.697Z,18.46
2019-04-21T16:36:23.313Z,18.29
2019-04-21T16:38:53.599Z,18.24
2019-04-21T16:41:24.414Z,18.23
2019-04-21T16:43:55.488Z,18.16
2019-04-21T16:46:25.565Z,18.06
2019-04-21T16:48:55.907Z,17.93
2019-04-21T16:51:26.419Z,17.80
2019-04-21T16:54:03.961Z,17.80
2019-04-21T16:56:39.525Z,17.72
2019-04-21T16:59:29.005Z,17.58
2019-04-21T17:01:58.773Z,17.49
2019-04-21T17:04:28.734Z,17.34
2019-04-21T17:06:58.937Z,17.17
2019-04-21T17:09:28.618Z,17.04
2019-04-21T17:12:02.311Z,16.85
2019-04-21T17:14:48.131Z,16.72
2019-04-21T17:17:25.641Z,16.58
2019-04-21T17:19:38.150Z,16.43
2019-04-21T17:22:03.957Z,16.31
2019-04-21T17:24:34.754Z,16.18
2019-04-21T17:27:05.072Z,16.18
2019-04-21T17:29:34.694Z,16.07
2019-04-21T17:32:07.417Z,15.92
2019-04-21T17:34:37.096Z,15.81
2019-04-21T17:37:06.889Z,15.73
2019-04-21T17:39:36.676Z,15.61
2019-04-21T17:42:18.644Z,15.53
2019-04-21T17:44:37.435Z,15.44
2019-04-21T17:47:21.205Z,15.36
2019-04-21T17:49:39.258Z,15.26
2019-04-21T17:52:19.779Z,15.20
2019-04-21T17:54:54.760Z,15.08
2019-04-21T17:57:43.886Z,14.96
2019-04-21T18:00:13.990Z,14.88
2019-04-21T18:02:51.801Z,14.79
2019-04-21T18:05:26.007Z,14.72
2019-04-21T18:07:47.807Z,14.68
2019-04-21T18:10:19.304Z,14.63
2019-04-21T18:12:45.094Z,14.58
2019-04-21T18:15:18.192Z,14.54
2019-04-21T18:17:34.276Z,14.46
2019-04-21T18:20:04.107Z,14.36
2019-04-21T18:22:53.514Z,14.29
2019-04-21T18:25:38.474Z,14.19
2019-04-21T18:27:56.675Z,14.22
2019-04-21T18:30:52.072Z,14.10
2019-04-21T18:33:29.955Z,14.07
2019-04-21T18:36:14.413Z,13.90
2019-04-21T18:39:09.854Z,13.79
2019-04-21T18:41:30.550Z,13.67
2019-04-21T18:44:34.605Z,13.57
2019-04-21T18:47:03.620Z,13.48
2019-04-21T18:49:24.632Z,13.41
2019-04-21T18:52:03.605Z,13.35
2019-04-21T18:54:45.840Z,13.29
2019-04-21T18:57:08.075Z,13.25
2019-04-21T18:59:37.283Z,13.27
2019-04-21T19:02:07.946Z,13.29
2019-04-21T19:04:37.076Z,13.24
2019-04-21T19:07:20.036Z,13.19
2019-04-21T19:12:49.193Z,13.02
2019-04-21T19:14:55.006Z,12.94
2019-04-21T19:17:58.081Z,12.87
2019-04-21T19:20:07.140Z,12.82
2019-04-21T19:22:34.119Z,12.76
2019-04-21T19:25:05.102Z,12.76
2019-04-21T19:27:32.174Z,12.79
2019-04-21T19:32:33.593Z,12.81
2019-04-21T19:34:55.786Z,12.76
2019-04-21T19:37:26.162Z,12.75
2019-04-21T19:40:05.717Z,12.72
2019-04-21T19:42:36.689Z,12.61
2019-04-21T19:45:10.768Z,12.51
2019-04-21T19:47:45.093Z,12.42
2019-04-21T19:50:15.853Z,12.39
2019-04-21T19:52:40.006Z,12.31
2019-04-21T19:55:00.560Z,12.21
2019-04-21T19:57:31.307Z,12.14
2019-04-21T20:00:04.334Z,12.05
2019-04-21T20:02:32.309Z,12.05
2019-04-21T20:05:07.037Z,12.01
2019-04-21T20:07:49.363Z,12.05
2019-04-21T20:10:26.842Z,12.04
2019-04-21T20:12:55.601Z,12.13
2019-04-21T20:15:37.346Z,12.07
2019-04-21T20:17:55.893Z,12.08
2019-04-21T20:20:13.283Z,12.06
2019-04-21T20:22:46.798Z,12.06
2019-04-21T20:25:18.108Z,12.09
2019-04-21T20:27:58.272Z,12.04
2019-04-21T20:30:41.420Z,12.01
2019-04-21T20:33:20.250Z,12.04
2019-04-21T20:35:46.819Z,12.09
2019-04-21T20:38:06.226Z,12.08
2019-04-21T20:40:36.320Z,12.12
2019-04-21T20:43:19.294Z,12.03
2019-04-21T20:45:49.438Z,11.95
2019-04-21T20:48:07.225Z,11.88
2019-04-21T20:50:41.957Z,11.83
2019-04-21T20:53:14.661Z,11.76
2019-04-21T20:55:47.216Z,11.69
2019-04-21T20:58:15.494Z,11.57
2019-04-21T21:01:06.344Z,11.52
2019-04-21T21:03:24.621Z,11.46
2019-04-21T21:05:49.698Z,11.41
2019-04-21T21:08:32.665Z,11.38
2019-04-21T21:10:53.317Z,11.31
2019-04-21T21:13:32.222Z,11.33
2019-04-21T21:16:10.526Z,11.28
2019-04-21T21:18:52.013Z,11.21
2019-04-21T21:21:08.914Z,11.11
2019-04-21T21:23:40.189Z,11.08
2019-04-21T21:26:12.322Z,11.07
2019-04-21T21:28:32.582Z,10.97
2019-04-21T21:31:07.351Z,10.90
2019-04-21T21:33:49.024Z,10.78
2019-04-21T21:36:10.711Z,10.71
2019-04-21T21:38:42.994Z,10.71
2019-04-21T21:41:05.189Z,10.65
2019-04-21T21:43:27.534Z,10.71
2019-04-21T21:45:59.884Z,10.64
2019-04-21T21:48:40.479Z,10.58
2019-04-21T21:51:05.966Z,10.47
2019-04-21T21:53:34.116Z,10.56
2019-04-21T21:56:02.733Z,10.59
2019-04-21T21:58:38.162Z,10.56
2019-04-21T22:01:06.198Z,10.42
2019-04-21T22:03:40.905Z,10.37
2019-04-21T22:06:10.795Z,10.27
2019-04-21T22:08:38.610Z,10.12
2019-04-21T22:11:08.943Z,10.02
2019-04-21T22:13:47.518Z,9.89
2019-04-21T22:16:14.011Z,9.88
2019-04-21T22:19:04.727Z,9.84
2019-04-21T22:21:34.659Z,9.78
2019-04-21T22:23:54.879Z,9.91
2019-04-21T22:26:15.481Z,9.98
2019-04-21T22:28:45.596Z,9.89
2019-04-21T22:31:21.193Z,9.80
2019-04-21T22:33:50.312Z,9.71
2019-04-21T22:36:32.973Z,9.61
2019-04-21T22:39:11.837Z,9.47
2019-04-21T22:41:30.326Z,9.38
2019-04-21T22:43:55.224Z,9.28
2019-04-21T22:46:24.412Z,9.16
2019-04-21T22:48:59.762Z,9.05
2019-04-21T22:51:35.444Z,9.02
2019-04-21T22:53:59.436Z,8.93
2019-04-21T22:56:32.059Z,8.89
2019-04-21T22:58:58.986Z,8.84
2019-04-21T23:01:34.985Z,8.81
2019-04-21T23:04:02.788Z,8.78
2019-04-21T23:06:34.371Z,8.68
2019-04-21T23:09:02.249Z,8.56
2019-04-21T23:11:37.506Z,8.47
2019-04-21T23:14:06.624Z,8.41
2019-04-21T23:16:37.820Z,8.32
2019-04-21T23:19:21.222Z,8.26
2019-04-21T23:21:58.061Z,8.22
2019-04-21T23:24:31.786Z,8.20
2019-04-21T23:26:51.365Z,8.19
2019-04-21T23:29:39.555Z,8.13
2019-04-21T23:31:59.246Z,8.16
2019-04-21T23:34:19.580Z,8.22
2019-04-21T23:36:53.090Z,8.14
2019-04-21T23:39:22.762Z,8.07
2019-04-21T23:41:51.063Z,8.03
2019-04-21T23:44:20.304Z,8.01
2019-04-21T23:46:54.718Z,8.01
2019-04-21T23:49:34.337Z,7.97
2019-04-21T23:51:59.344Z,7.87
2019-04-21T23:54:23.142Z,7.81
2019-04-21T23:56:53.880Z,7.88
2019-04-21T23:59:24.821Z,7.89
